Time;durP1;ratioP1;P1;durP2;ratioP2;P2;SDS_P1;SDS_P2;PMS_P1;PMS_P2;Temp;Humidity;BMP_temperature;BMP_pressure;BME280_temperature;BME280_humidity;BME280_pressure;Samples;Min_cycle;Max_cycle;Signal;HPM_P1;HPM_P2
2021/12/15 00:02:00;;;;;;;28.77;10.93;;;5.20;99.90;;;;;;5000424;28;20482;-87
2021/12/15 00:04:26;;;;;;;22.47;9.83;;;5.30;99.90;;;;;;5002608;28;20026;-88
2021/12/15 00:06:52;;;;;;;22.37;10.83;;;5.30;99.90;;;;;;5002186;28;20521;-88
2021/12/15 00:09:18;;;;;;;23.97;10.67;;;5.30;99.90;;;;;;5001275;28;20030;-87
2021/12/15 00:11:45;;;;;;;19.37;9.33;;;5.20;99.90;;;;;;5003167;28;20029;-88
2021/12/15 00:14:16;;;;;;;21.63;9.83;;;5.30;99.90;;;;;;4995210;28;20121;-88
2021/12/15 00:16:42;;;;;;;27.10;10.93;;;5.30;99.90;;;;;;4995248;28;20036;-87
2021/12/15 00:19:08;;;;;;;23.27;10.13;;;5.30;99.90;;;;;;4995270;28;20030;-87
2021/12/15 00:21:35;;;;;;;24.07;9.83;;;5.30;99.90;;;;;;4996674;28;20034;-87
2021/12/15 00:24:01;;;;;;;22.67;9.33;;;5.30;99.90;;;;;;5019875;28;20070;-87
2021/12/15 00:26:26;;;;;;;22.67;9.77;;;5.30;99.90;;;;;;5031539;28;20491;-87
2021/12/15 00:28:52;;;;;;;24.27;10.00;;;5.40;99.90;;;;;;5015718;28;20057;-88
2021/12/15 00:31:19;;;;;;;24.77;10.33;;;5.30;99.90;;;;;;5015379;28;20041;-88
2021/12/15 00:33:45;;;;;;;23.00;10.47;;;5.30;99.90;;;;;;5041138;28;20044;-88
2021/12/15 00:36:12;;;;;;;23.77;9.93;;;5.30;99.90;;;;;;5014888;28;20022;-87
2021/12/15 00:38:39;;;;;;;21.60;9.67;;;5.30;99.90;;;;;;5019838;28;20054;-88
2021/12/15 00:41:05;;;;;;;23.50;10.00;;;5.30;99.90;;;;;;5014439;28;20182;-87
2021/12/15 00:43:32;;;;;;;24.33;9.53;;;5.30;99.90;;;;;;5014102;28;20030;-88
2021/12/15 00:45:59;;;;;;;23.63;10.80;;;5.30;99.90;;;;;;5014185;28;20065;-88
2021/12/15 00:48:26;;;;;;;23.83;10.40;;;5.30;99.90;;;;;;5013830;28;20026;-88
2021/12/15 00:50:54;;;;;;;21.20;9.83;;;5.30;99.90;;;;;;5014901;28;20026;-88
2021/12/15 00:53:20;;;;;;;23.13;8.80;;;5.30;99.90;;;;;;5012430;28;20478;-89
2021/12/15 00:55:46;;;;;;;23.43;9.80;;;5.30;99.90;;;;;;5013717;28;20045;-88
2021/12/15 00:58:13;;;;;;;23.80;9.83;;;5.40;99.90;;;;;;5012836;28;20053;-88
2021/12/15 01:00:40;;;;;;;22.60;9.40;;;5.40;99.90;;;;;;5029680;28;20034;-88
2021/12/15 01:03:07;;;;;;;29.37;10.90;;;5.30;99.90;;;;;;5013590;28;20135;-86
2021/12/15 01:05:37;;;;;;;27.50;11.03;;;5.30;99.90;;;;;;5027632;28;20118;-87
2021/12/15 01:08:07;;;;;;;28.57;11.37;;;5.30;99.90;;;;;;5010716;28;20474;-89
2021/12/15 01:10:55;;;;;;;25.20;10.77;;;5.30;99.90;;;;;;5029499;28;20103;-87
2021/12/15 01:21:35;;;;;;;22.43;9.30;;;5.30;99.90;;;;;;5015204;28;20036;-89
2021/12/15 01:24:03;;;;;;;22.03;10.03;;;5.30;99.90;;;;;;5022856;28;20030;-88
2021/12/15 01:26:29;;;;;;;21.33;9.33;;;5.20;99.90;;;;;;5013419;28;20096;-87
2021/12/15 01:28:54;;;;;;;26.27;9.73;;;5.30;99.90;;;;;;5044257;23;20065;-84
2021/12/15 01:31:20;;;;;;;20.83;8.37;;;5.30;99.90;;;;;;5014650;28;20417;-88
2021/12/15 01:33:46;;;;;;;19.30;8.70;;;5.30;99.90;;;;;;5029146;28;20029;-88
2021/12/15 01:36:12;;;;;;;20.67;8.97;;;5.30;99.90;;;;;;5016225;28;20104;-88
2021/12/15 01:38:40;;;;;;;22.77;9.83;;;5.30;99.90;;;;;;5027554;28;20057;-88
2021/12/15 01:41:14;;;;;;;19.60;8.23;;;5.30;99.90;;;;;;5028062;28;20038;-88
2021/12/15 01:49:15;;;;;;;25.13;10.40;;;5.30;99.90;;;;;;5017346;28;20133;-87
2021/12/15 01:51:42;;;;;;;24.43;10.17;;;5.30;99.90;;;;;;5022230;28;20033;-87
2021/12/15 01:54:09;;;;;;;26.33;10.23;;;5.30;99.90;;;;;;5033344;28;20061;-88
2021/12/15 01:56:36;;;;;;;23.70;10.07;;;5.30;99.90;;;;;;5027360;28;20079;-87
2021/12/15 01:59:02;;;;;;;26.23;10.20;;;5.40;99.90;;;;;;5037493;28;20043;-88
2021/12/15 02:01:28;;;;;;;23.37;9.13;;;5.30;99.90;;;;;;5036892;28;20039;-88
2021/12/15 02:03:55;;;;;;;21.87;9.50;;;5.40;99.90;;;;;;5036871;28;20030;-88
2021/12/15 02:06:21;;;;;;;24.27;10.23;;;5.30;99.90;;;;;;5029512;28;20133;-89
2021/12/15 02:08:48;;;;;;;24.30;9.77;;;5.40;99.90;;;;;;5037268;28;20475;-87
2021/12/15 02:11:17;;;;;;;21.50;7.63;;;5.30;99.90;;;;;;5037495;28;20152;-88
2021/12/15 02:13:47;;;;;;;21.93;9.07;;;5.30;99.90;;;;;;5037178;28;20166;-88
2021/12/15 02:18:48;;;;;;;17.57;7.13;;;5.30;99.90;;;;;;5052764;22;20530;-89
2021/12/15 02:21:19;;;;;;;19.03;9.03;;;5.30;99.90;;;;;;5062289;28;20033;-88
2021/12/15 02:23:52;;;;;;;21.40;8.13;;;5.30;99.90;;;;;;5061877;28;20388;-88
2021/12/15 02:26:22;;;;;;;17.57;7.90;;;5.30;99.90;;;;;;5061145;28;20025;-87
2021/12/15 02:28:51;;;;;;;20.27;8.13;;;5.30;99.90;;;;;;5043054;28;20022;-88
2021/12/15 02:39:11;;;;;;;26.03;8.63;;;5.30;99.90;;;;;;5036333;28;20111;-85
2021/12/15 02:41:38;;;;;;;21.90;8.60;;;5.30;99.90;;;;;;5034626;28;20397;-84
2021/12/15 02:44:08;;;;;;;25.53;9.60;;;5.30;99.90;;;;;;5035732;28;20013;-84
2021/12/15 02:46:35;;;;;;;24.73;10.13;;;5.30;99.90;;;;;;5025748;28;20117;-84
2021/12/15 02:49:02;;;;;;;25.37;9.43;;;5.30;99.90;;;;;;5033635;28;20034;-84
2021/12/15 02:51:28;;;;;;;25.73;10.50;;;5.30;99.90;;;;;;5035901;28;20022;-85
2021/12/15 02:53:56;;;;;;;20.40;9.40;;;5.20;99.90;;;;;;5036030;28;20033;-84
2021/12/15 02:56:22;;;;;;;22.00;9.33;;;5.30;99.90;;;;;;5029463;28;20030;-85
2021/12/15 02:58:53;;;;;;;22.90;8.27;;;5.30;99.90;;;;;;5028646;28;20033;-85
2021/12/15 03:01:32;;;;;;;20.20;8.63;;;5.30;99.90;;;;;;5035346;28;20079;-84
2021/12/15 03:04:13;;;;;;;18.93;8.70;;;5.20;99.90;;;;;;5034762;28;20029;-84
2021/12/15 03:07:06;;;;;;;21.73;8.87;;;5.20;99.90;;;;;;5026965;28;20026;-84
2021/12/15 03:17:39;;;;;;;16.90;8.00;;;5.20;99.90;;;;;;5038210;28;20044;-84
2021/12/15 03:20:08;;;;;;;15.93;7.43;;;5.20;99.90;;;;;;5051848;28;20025;-84
2021/12/15 03:22:34;;;;;;;16.90;6.67;;;5.20;99.90;;;;;;5036101;28;20084;-85
2021/12/15 03:24:59;;;;;;;11.37;4.67;;;5.20;99.90;;;;;;5037662;28;20022;-85
2021/12/15 03:33:16;;;;;;;7.70;3.07;;;5.20;99.90;;;;;;5036399;28;20365;-84
2021/12/15 03:33:33;;;;;;;4.90;2.03;;;5.20;99.90;;;;;;5036627;28;20124;-85
2021/12/15 03:36:06;;;;;;;4.90;2.33;;;5.00;99.90;;;;;;5052180;28;20029;-85
2021/12/15 03:38:34;;;;;;;6.27;2.80;;;5.10;99.90;;;;;;5036625;28;20108;-85
2021/12/15 03:41:01;;;;;;;11.10;4.87;;;5.10;99.90;;;;;;5034976;28;20485;-84
2021/12/15 03:43:26;;;;;;;12.90;5.03;;;5.20;99.90;;;;;;5036567;28;20029;-84
2021/12/15 03:46:01;;;;;;;16.53;6.50;;;5.20;99.90;;;;;;5051753;28;20034;-85
2021/12/15 03:48:31;;;;;;;14.93;6.50;;;5.10;99.90;;;;;;5034480;28;20022;-84
2021/12/15 03:50:58;;;;;;;16.57;6.33;;;5.20;99.90;;;;;;5040780;28;20026;-84
2021/12/15 03:53:25;;;;;;;17.07;6.97;;;5.30;99.90;;;;;;5038959;28;20085;-84
2021/12/15 03:55:52;;;;;;;13.87;5.87;;;5.20;99.90;;;;;;5059891;28;20029;-84
2021/12/15 03:58:22;;;;;;;16.20;6.97;;;5.20;99.90;;;;;;5062143;28;20017;-84
2021/12/15 04:01:01;;;;;;;15.93;6.83;;;5.20;99.90;;;;;;5057513;28;20029;-84
2021/12/15 04:03:27;;;;;;;15.10;6.80;;;5.20;99.90;;;;;;5055750;28;20078;-85
2021/12/15 04:05:54;;;;;;;11.40;5.43;;;5.20;99.90;;;;;;5054541;28;20021;-84
2021/12/15 04:08:20;;;;;;;14.93;5.97;;;5.20;99.90;;;;;;5033843;28;20022;-85
2021/12/15 04:10:46;;;;;;;10.90;4.60;;;5.20;99.90;;;;;;5024123;28;20393;-84
2021/12/15 04:13:13;;;;;;;13.93;6.17;;;5.20;99.90;;;;;;5014771;28;20056;-84
2021/12/15 04:15:44;;;;;;;12.80;6.37;;;5.20;99.90;;;;;;5020156;28;20095;-85
2021/12/15 04:18:10;;;;;;;14.73;7.07;;;5.20;99.90;;;;;;5012935;28;20432;-86
2021/12/15 04:20:37;;;;;;;14.57;6.60;;;5.20;99.90;;;;;;5013705;28;20026;-84
2021/12/15 04:23:06;;;;;;;15.47;7.00;;;5.20;99.90;;;;;;5020512;28;20494;-85
2021/12/15 04:25:34;;;;;;;12.33;6.03;;;5.30;99.90;;;;;;5034379;28;20026;-84
2021/12/15 04:28:05;;;;;;;17.67;8.00;;;5.30;99.90;;;;;;5029432;28;20446;-85
2021/12/15 04:30:33;;;;;;;15.80;6.63;;;5.20;99.90;;;;;;5012987;28;20033;-83
2021/12/15 04:33:07;;;;;;;15.00;7.37;;;5.20;99.90;;;;;;5013982;28;20033;-84
2021/12/15 04:35:34;;;;;;;14.47;6.50;;;5.10;99.90;;;;;;5022075;28;20489;-85
2021/12/15 04:38:00;;;;;;;11.03;5.90;;;5.10;99.90;;;;;;5033380;28;20026;-84
2021/12/15 04:40:26;;;;;;;11.03;5.80;;;5.10;99.90;;;;;;5033299;28;20037;-84
2021/12/15 04:42:54;;;;;;;13.63;6.53;;;5.10;99.90;;;;;;5033873;28;20384;-83
2021/12/15 04:45:22;;;;;;;13.83;6.93;;;5.10;99.90;;;;;;5034925;28;20021;-85
2021/12/15 04:47:52;;;;;;;12.50;5.53;;;5.10;99.90;;;;;;5033265;28;20091;-84
2021/12/15 04:50:24;;;;;;;11.60;4.93;;;5.10;99.90;;;;;;5028232;28;20026;-84
2021/12/15 04:52:50;;;;;;;9.50;4.93;;;5.10;99.90;;;;;;5032426;28;20424;-83
2021/12/15 04:55:18;;;;;;;5.80;2.80;;;5.10;99.90;;;;;;5033433;28;20029;-85
2021/12/15 04:57:43;;;;;;;6.20;2.27;;;5.00;99.90;;;;;;5031155;28;20104;-84
2021/12/15 05:00:14;;;;;;;5.40;2.40;;;5.00;99.90;;;;;;5031321;28;20470;-84
2021/12/15 05:02:40;;;;;;;5.23;2.57;;;5.10;99.90;;;;;;5033915;28;20116;-85
2021/12/15 05:05:08;;;;;;;7.90;4.23;;;5.10;99.90;;;;;;5032931;28;20018;-85
2021/12/15 05:07:34;;;;;;;7.77;3.73;;;5.10;99.90;;;;;;5033893;28;20381;-84
2021/12/15 05:10:00;;;;;;;8.30;3.67;;;5.10;99.90;;;;;;5033571;28;20018;-83
2021/12/15 05:12:27;;;;;;;9.10;4.57;;;5.10;99.90;;;;;;5023311;28;20029;-84
2021/12/15 05:14:53;;;;;;;9.90;4.57;;;5.10;99.90;;;;;;5026063;28;20018;-85
2021/12/15 05:17:19;;;;;;;10.30;5.10;;;5.10;99.90;;;;;;5028188;28;20079;-85
2021/12/15 05:19:46;;;;;;;13.43;5.63;;;5.10;99.90;;;;;;5033371;28;20065;-84
2021/12/15 05:22:13;;;;;;;10.63;5.43;;;5.10;99.90;;;;;;5034340;28;20068;-83
2021/12/15 05:24:40;;;;;;;10.53;5.30;;;5.10;99.90;;;;;;5032867;28;20061;-84
2021/12/15 05:27:13;;;;;;;11.40;5.43;;;5.10;99.90;;;;;;5034766;28;20024;-85
2021/12/15 05:29:45;;;;;;;6.83;3.47;;;5.10;99.90;;;;;;5042258;28;20018;-84
2021/12/15 05:32:12;;;;;;;4.53;2.10;;;5.10;99.90;;;;;;5027399;28;20080;-84
2021/12/15 05:34:39;;;;;;;5.53;2.10;;;5.10;99.90;;;;;;5019520;28;20058;-84
2021/12/15 05:37:06;;;;;;;4.63;2.40;;;5.10;99.90;;;;;;5049202;28;20092;-84
2021/12/15 05:39:32;;;;;;;5.30;2.43;;;5.10;99.90;;;;;;5036311;28;20029;-85
2021/12/15 05:41:58;;;;;;;4.93;2.53;;;5.10;99.90;;;;;;5015553;28;20087;-84
2021/12/15 05:44:25;;;;;;;6.10;3.10;;;5.00;99.90;;;;;;5023631;28;20144;-86
2021/12/15 05:46:54;;;;;;;5.83;3.40;;;5.10;99.90;;;;;;5013700;28;20474;-83
2021/12/15 05:49:20;;;;;;;4.90;2.70;;;5.10;99.90;;;;;;5026197;28;20037;-85
2021/12/15 05:51:46;;;;;;;6.87;2.97;;;5.10;99.90;;;;;;5020942;28;20060;-85
2021/12/15 05:54:12;;;;;;;6.17;3.67;;;5.10;99.90;;;;;;5020347;28;20079;-85
2021/12/15 05:56:38;;;;;;;5.43;3.00;;;5.10;99.90;;;;;;5020016;28;20141;-85
2021/12/15 05:59:05;;;;;;;5.57;3.47;;;5.10;99.90;;;;;;5021574;28;20030;-84
2021/12/15 06:01:31;;;;;;;7.73;3.60;;;5.20;99.90;;;;;;5021829;28;20455;-85
2021/12/15 06:04:00;;;;;;;9.13;4.90;;;5.20;99.90;;;;;;5026921;28;20458;-84
2021/12/15 06:06:26;;;;;;;9.70;4.60;;;5.20;99.90;;;;;;5025021;28;20021;-84
2021/12/15 06:08:52;;;;;;;9.37;4.80;;;5.20;99.90;;;;;;5018898;28;20036;-85
2021/12/15 06:11:18;;;;;;;9.67;4.20;;;5.20;99.90;;;;;;5027649;28;20026;-83
2021/12/15 06:13:47;;;;;;;8.33;4.23;;;5.20;99.90;;;;;;5029213;28;20411;-83
2021/12/15 06:16:14;;;;;;;9.77;4.43;;;5.20;99.90;;;;;;5043397;28;20405;-85
2021/12/15 06:18:40;;;;;;;9.03;4.80;;;5.20;99.90;;;;;;5019993;28;20098;-83
2021/12/15 06:21:06;;;;;;;12.83;5.27;;;5.10;99.90;;;;;;5029268;28;20060;-84
2021/12/15 06:23:32;;;;;;;10.07;4.83;;;5.20;99.90;;;;;;5029294;28;20056;-84
2021/12/15 06:26:01;;;;;;;11.27;5.50;;;5.20;99.90;;;;;;5041238;28;20021;-83
2021/12/15 06:28:28;;;;;;;10.43;5.43;;;5.20;99.90;;;;;;5022607;28;20105;-85
2021/12/15 06:30:56;;;;;;;13.77;5.47;;;5.20;99.90;;;;;;5028321;28;20044;-83
2021/12/15 06:33:23;;;;;;;12.77;6.07;;;5.20;99.90;;;;;;5012259;28;20033;-84
2021/12/15 06:35:58;;;;;;;11.47;5.60;;;5.10;99.90;;;;;;5024163;28;20370;-85
2021/12/15 06:38:30;;;;;;;13.33;6.97;;;5.10;99.90;;;;;;5029138;28;20029;-83
2021/12/15 06:40:57;;;;;;;13.97;6.33;;;5.10;99.90;;;;;;5019566;28;20085;-85
2021/12/15 06:43:23;;;;;;;10.97;5.80;;;5.10;99.90;;;;;;5028383;28;20026;-83
2021/12/15 06:59:18;;;;;;;13.90;7.17;;;5.10;99.90;;;;;;5032901;28;20024;-85
2021/12/15 07:01:43;;;;;;;13.73;6.57;;;5.00;99.90;;;;;;5045813;28;20033;-85
2021/12/15 07:04:09;;;;;;;16.53;6.73;;;5.10;99.90;;;;;;5033362;28;20040;-84
2021/12/15 07:06:35;;;;;;;14.17;6.67;;;5.00;99.90;;;;;;5032761;28;20017;-84
2021/12/15 07:09:00;;;;;;;12.63;6.13;;;5.10;99.90;;;;;;5043456;28;20033;-85
2021/12/15 07:11:26;;;;;;;12.87;6.03;;;5.00;99.90;;;;;;5037085;28;20026;-85
2021/12/15 07:13:52;;;;;;;12.77;6.23;;;5.10;99.90;;;;;;5013709;28;20025;-84
2021/12/15 07:16:19;;;;;;;13.73;6.47;;;5.00;99.90;;;;;;5022745;28;20470;-84
2021/12/15 07:19:08;;;;;;;11.30;6.63;;;5.00;99.90;;;;;;5023708;28;20029;-85
2021/12/15 07:21:37;;;;;;;11.87;6.00;;;5.10;99.90;;;;;;5013081;28;20022;-85
2021/12/15 07:24:03;;;;;;;14.10;6.30;;;5.00;99.90;;;;;;5017790;28;20492;-85
2021/12/15 07:26:29;;;;;;;13.27;6.47;;;5.00;99.90;;;;;;5016650;28;20401;-86
2021/12/15 07:28:55;;;;;;;11.23;6.07;;;5.10;99.90;;;;;;5019298;28;20025;-85
2021/12/15 07:31:21;;;;;;;13.43;6.27;;;5.10;99.90;;;;;;5022084;28;20037;-85
2021/12/15 07:33:47;;;;;;;13.10;6.00;;;5.00;99.90;;;;;;5029320;28;20037;-85
2021/12/15 07:36:13;;;;;;;15.13;6.87;;;5.00;99.90;;;;;;5024434;28;20026;-85
2021/12/15 07:38:43;;;;;;;13.80;6.53;;;5.00;99.90;;;;;;5027953;28;20021;-86
2021/12/15 07:41:25;;;;;;;12.30;6.60;;;5.00;99.90;;;;;;5029186;28;20037;-85
2021/12/15 07:43:53;;;;;;;15.65;7.07;;;5.00;99.90;;;;;;5022892;28;20095;-85
2021/12/15 07:46:19;;;;;;;13.03;6.13;;;5.00;99.90;;;;;;5032399;28;20036;-85
2021/12/15 07:48:44;;;;;;;12.73;5.67;;;5.00;99.90;;;;;;5031898;28;20033;-85
2021/12/15 07:51:12;;;;;;;10.50;5.33;;;5.00;99.90;;;;;;5032243;28;20508;-85
2021/12/15 07:53:40;;;;;;;10.40;5.80;;;5.00;99.90;;;;;;5027871;28;20049;-85
2021/12/15 07:56:06;;;;;;;9.80;5.43;;;5.00;99.90;;;;;;5041831;28;20052;-86
2021/12/15 07:58:32;;;;;;;9.07;4.63;;;5.00;99.90;;;;;;5043054;28;20044;-85
2021/12/15 08:00:59;;;;;;;8.00;3.60;;;5.00;99.90;;;;;;5035914;28;20021;-85
2021/12/15 08:03:27;;;;;;;7.10;3.53;;;4.90;99.90;;;;;;5039358;28;20076;-85
2021/12/15 08:05:53;;;;;;;7.20;3.50;;;5.00;99.90;;;;;;5024779;28;20055;-84
2021/12/15 08:08:20;;;;;;;7.50;3.73;;;5.00;99.90;;;;;;5033149;28;20021;-85
2021/12/15 08:10:47;;;;;;;7.50;2.93;;;5.00;99.90;;;;;;5049645;28;20032;-85
2021/12/15 08:13:15;;;;;;;8.47;3.23;;;5.00;99.90;;;;;;5062268;28;20025;-84
2021/12/15 08:15:41;;;;;;;7.47;3.33;;;4.90;99.90;;;;;;5061251;28;20028;-85
2021/12/15 08:18:08;;;;;;;6.90;3.10;;;5.00;99.90;;;;;;5030130;28;20029;-85
2021/12/15 08:20:35;;;;;;;7.00;3.50;;;4.90;99.90;;;;;;5056774;28;20025;-85
2021/12/15 08:23:02;;;;;;;5.60;2.90;;;5.00;99.90;;;;;;5057635;28;20029;-84
2021/12/15 08:25:30;;;;;;;6.87;3.00;;;4.90;99.90;;;;;;5039547;28;20052;-85
2021/12/15 08:27:56;;;;;;;5.83;2.70;;;5.00;99.90;;;;;;5040368;28;20073;-84
2021/12/15 08:30:25;;;;;;;6.73;3.43;;;5.00;99.90;;;;;;5037067;28;20034;-85
2021/12/15 08:32:55;;;;;;;6.60;2.77;;;5.00;99.90;;;;;;5035718;28;20029;-85
2021/12/15 08:35:26;;;;;;;10.13;3.07;;;4.90;99.90;;;;;;5036831;28;20028;-85
2021/12/15 08:37:53;;;;;;;7.27;3.10;;;5.00;99.90;;;;;;5016450;28;20062;-85
2021/12/15 08:40:22;;;;;;;6.77;3.37;;;5.00;99.90;;;;;;5017888;28;20022;-85
2021/12/15 08:42:50;;;;;;;7.67;3.10;;;5.00;99.90;;;;;;5017408;28;20513;-85
2021/12/15 08:45:18;;;;;;;8.10;3.73;;;5.00;99.90;;;;;;5034099;28;20053;-84
2021/12/15 08:47:44;;;;;;;6.67;3.17;;;5.00;99.90;;;;;;5038755;28;20017;-85
2021/12/15 08:50:17;;;;;;;6.97;2.67;;;5.00;99.90;;;;;;5038167;28;20078;-85
2021/12/15 08:52:43;;;;;;;6.77;3.30;;;4.90;99.90;;;;;;5033728;28;20061;-85
2021/12/15 08:55:09;;;;;;;6.20;2.90;;;5.00;99.90;;;;;;5012477;28;20038;-85
2021/12/15 08:57:36;;;;;;;7.63;3.50;;;5.00;99.90;;;;;;5025845;28;20391;-85
2021/12/15 09:00:08;;;;;;;6.97;3.77;;;5.00;99.90;;;;;;5032157;28;20021;-84
2021/12/15 09:02:36;;;;;;;7.13;3.20;;;5.00;99.90;;;;;;5031191;28;20021;-85
2021/12/15 09:05:03;;;;;;;8.17;3.13;;;5.00;99.90;;;;;;5031933;28;20029;-85
2021/12/15 09:07:30;;;;;;;4.87;2.27;;;5.00;99.90;;;;;;5031301;28;20183;-85
2021/12/15 09:09:56;;;;;;;5.53;2.47;;;5.00;99.90;;;;;;5035227;28;20017;-85
2021/12/15 09:12:21;;;;;;;7.80;3.17;;;5.00;99.90;;;;;;5033331;28;20608;-85
2021/12/15 09:14:47;;;;;;;5.13;2.60;;;5.00;99.90;;;;;;5031942;28;20093;-86
2021/12/15 09:17:14;;;;;;;7.60;3.57;;;5.00;99.90;;;;;;5030518;28;20033;-85
2021/12/15 09:19:40;;;;;;;6.90;2.97;;;5.00;99.90;;;;;;5038918;28;21449;-85
2021/12/15 09:22:06;;;;;;;5.70;2.40;;;5.10;99.90;;;;;;5046491;28;20600;-85
2021/12/15 09:24:35;;;;;;;4.73;2.50;;;5.10;99.90;;;;;;5069028;22;20040;-91
2021/12/15 09:27:01;;;;;;;5.40;2.07;;;5.10;99.90;;;;;;5062415;28;20020;-89
2021/12/15 09:29:32;;;;;;;6.10;2.57;;;5.10;99.90;;;;;;5074294;28;20021;-90
2021/12/15 09:32:08;;;;;;;5.93;2.78;;;5.10;99.90;;;;;;5059220;28;20033;-90
2021/12/15 09:34:36;;;;;;;6.07;2.80;;;5.10;99.90;;;;;;5052324;28;20040;-90
2021/12/15 09:37:04;;;;;;;5.23;2.30;;;5.10;99.90;;;;;;5052693;28;20029;-90
2021/12/15 09:39:31;;;;;;;6.63;2.93;;;5.10;99.90;;;;;;5054020;28;20017;-88
2021/12/15 09:41:59;;;;;;;6.90;2.57;;;5.10;99.90;;;;;;5042265;28;20032;-92
2021/12/15 09:44:29;;;;;;;6.37;3.00;;;5.10;99.90;;;;;;5056375;28;20123;-90
2021/12/15 10:01:54;;;;;;;6.30;2.53;;;5.10;99.90;;;;;;5062407;28;20078;-86
2021/12/15 10:04:17;;;;;;;5.87;2.27;;;5.10;99.90;;;;;;5052813;28;20035;-86
2021/12/15 10:06:25;;;;;;;4.97;2.53;;;5.10;99.90;;;;;;5045139;28;20029;-86
2021/12/15 10:11:52;;;;;;;4.90;2.00;;;5.10;99.90;;;;;;5058706;28;20063;-87
2021/12/15 10:20:08;;;;;;;5.00;2.17;;;5.20;99.90;;;;;;5061176;28;20033;-86
2021/12/15 10:22:45;;;;;;;4.33;2.17;;;5.20;99.90;;;;;;5073773;28;20032;-86
2021/12/15 10:25:22;;;;;;;4.83;1.70;;;5.10;99.90;;;;;;5054636;28;20032;-86
2021/12/15 10:27:50;;;;;;;5.33;2.10;;;5.10;99.90;;;;;;5060596;28;20055;-86
2021/12/15 10:30:45;;;;;;;4.53;1.43;;;5.10;99.90;;;;;;5057983;28;20103;-87
2021/12/15 10:33:17;;;;;;;4.37;2.03;;;5.10;99.90;;;;;;5074729;28;20017;-87
2021/12/15 10:35:48;;;;;;;4.57;1.95;;;5.10;99.90;;;;;;5057755;28;20032;-87
2021/12/15 10:38:30;;;;;;;5.45;2.33;;;5.20;99.90;;;;;;5059266;28;20036;-88
2021/12/15 10:41:19;;;;;;;4.28;1.75;;;5.30;99.90;;;;;;5080663;28;20021;-87
2021/12/15 10:43:50;;;;;;;5.17;2.37;;;5.20;99.90;;;;;;5076176;28;20055;-90
2021/12/15 10:46:20;;;;;;;5.47;2.20;;;5.20;99.90;;;;;;5076289;28;20025;-91
2021/12/15 10:49:13;;;;;;;7.80;2.00;;;5.30;99.90;;;;;;5079849;28;20025;-89
2021/12/15 10:52:09;;;;;;;5.87;1.93;;;5.20;99.90;;;;;;5077991;28;20025;-89
2021/12/15 10:54:56;;;;;;;;;;;;;;;;;;;;;
2021/12/15 10:57:44;;;;;;;5.73;1.97;;;5.20;99.90;;;;;;5055158;28;20456;-87
2021/12/15 11:00:13;;;;;;;3.87;1.30;;;5.10;99.90;;;;;;5036193;28;20037;-87
2021/12/15 11:03:16;;;;;;;;;;;;;;;;;;;;;
2021/12/15 11:05:54;;;;;;;6.70;2.33;;;5.10;99.90;;;;;;5066968;28;20031;-87
2021/12/15 11:12:01;;;;;;;4.43;1.77;;;5.10;99.90;;;;;;4991915;28;20035;-87
2021/12/15 11:14:58;;;;;;;4.70;2.00;;;5.20;99.90;;;;;;5040500;28;20033;-88
2021/12/15 11:17:33;;;;;;;6.23;1.67;;;5.20;99.90;;;;;;5050056;28;20037;-87
2021/12/15 11:20:27;;;;;;;4.67;1.80;;;5.20;99.90;;;;;;5049175;28;20025;-88
2021/12/15 11:23:06;;;;;;;5.57;1.93;;;5.20;99.90;;;;;;5043626;28;20068;-88
2021/12/15 11:26:08;;;;;;;6.33;2.17;;;5.20;99.90;;;;;;5058806;28;20037;-88
2021/12/15 11:28:44;;;;;;;6.47;2.70;;;5.20;99.90;;;;;;5019760;28;20048;-88
2021/12/15 11:32:00;;;;;;;5.30;2.40;;;5.20;99.90;;;;;;5070564;28;20434;-88
2021/12/15 11:34:32;;;;;;;4.87;2.30;;;5.20;99.90;;;;;;4976891;28;20119;-88
2021/12/15 11:37:07;;;;;;;5.20;2.47;;;5.20;99.90;;;;;;4994391;28;20486;-88
2021/12/15 11:40:10;;;;;;;5.90;2.60;;;5.30;99.90;;;;;;5015174;28;20040;-88
2021/12/15 12:22:36;;;;;;;5.83;3.47;;;5.30;99.90;;;;;;4959694;28;20198;-88
2021/12/15 12:25:35;;;;;;;;;;;;;;;;;;;;;
2021/12/15 12:28:11;;;;;;;6.77;3.07;;;5.40;99.90;;;;;;5032161;28;20033;-88
2021/12/15 12:31:13;;;;;;;;;;;;;;;;;;;;;
2021/12/15 12:41:30;;;;;;;5.23;2.83;;;5.30;99.90;;;;;;4986898;28;20041;-88
2021/12/15 12:44:21;;;;;;;6.23;3.10;;;5.40;99.90;;;;;;4970207;28;20092;-89
2021/12/15 12:47:18;;;;;;;5.37;3.00;;;5.30;99.90;;;;;;5018029;28;20041;-88
2021/12/15 13:02:46;;;;;;;4.60;2.53;;;5.30;99.90;;;;;;4971250;28;20037;-89
2021/12/15 13:12:51;;;;;;;6.03;3.20;;;5.30;99.90;;;;;;5023677;28;20029;-90
2021/12/15 13:15:22;;;;;;;6.20;3.03;;;5.20;99.90;;;;;;4986582;28;20033;-87
2021/12/15 13:18:12;;;;;;;5.20;3.00;;;5.30;99.90;;;;;;5015812;28;20053;-88
2021/12/15 13:20:56;;;;;;;6.00;3.30;;;5.30;99.90;;;;;;5032557;28;20029;-89
2021/12/15 13:24:14;;;;;;;8.00;3.03;;;5.40;99.90;;;;;;5015412;28;20104;-88
2021/12/15 13:30:57;;;;;;;7.27;3.40;;;5.30;99.90;;;;;;5053386;28;20028;-89
2021/12/15 13:33:36;;;;;;;6.43;3.07;;;5.30;99.90;;;;;;4917652;29;20082;-87
2021/12/15 13:36:55;;;;;;;;;;;;;;;;;;;;;
2021/12/15 13:47:29;;;;;;;;;;;;;;;;;;;;;
2021/12/15 13:50:46;;;;;;;6.23;2.87;;;5.40;99.90;;;;;;5030886;28;20030;-88
2021/12/15 13:54:29;;;;;;;5.47;2.87;;;5.40;99.90;;;;;;4895605;29;20115;-88
2021/12/15 14:03:52;;;;;;;4.87;2.63;;;5.40;99.90;;;;;;4914489;29;20592;-88
2021/12/15 14:07:09;;;;;;;;;;;;;;;;;;;;;
2021/12/15 14:13:22;;;;;;;4.73;2.30;;;5.40;99.90;;;;;;5034492;28;20082;-87
2021/12/15 14:23:14;;;;;;;4.97;2.87;;;5.50;99.90;;;;;;4988072;28;20409;-87
2021/12/15 14:26:36;;;;;;;5.33;2.67;;;5.50;99.90;;;;;;5030549;28;20140;-87
2021/12/15 14:29:59;;;;;;;;;;;;;;;;;;;;;
2021/12/15 14:36:21;;;;;;;4.67;2.00;;;5.60;99.90;;;;;;4973758;28;19917;-87
2021/12/15 14:39:35;;;;;;;5.33;2.53;;;5.60;99.90;;;;;;4951633;28;20045;-87
2021/12/15 14:49:36;;;;;;;4.57;2.43;;;5.60;99.90;;;;;;4970633;28;20525;-87
2021/12/15 14:55:50;;;;;;;5.30;2.30;;;5.50;99.90;;;;;;5167718;22;20113;-86
2021/12/15 15:02:11;;;;;;;;;;;;;;;;;;;;;
2021/12/15 15:05:31;;;;;;;;;;;;;;;;;;;;;
2021/12/15 15:25:49;;;;;;;5.03;2.63;;;5.40;99.90;;;;;;5012854;22;20041;-88
2021/12/15 15:32:02;;;;;;;4.67;2.43;;;5.20;99.90;;;;;;5030762;28;20480;-89
2021/12/15 15:34:56;;;;;;;5.60;2.80;;;5.20;99.90;;;;;;4999629;28;20040;-89
2021/12/15 15:37:46;;;;;;;6.53;2.67;;;5.20;99.90;;;;;;5043721;28;20017;-89
2021/12/15 15:40:37;;;;;;;5.20;2.60;;;5.10;99.90;;;;;;5030863;28;20040;-89
2021/12/15 15:43:41;;;;;;;5.70;2.50;;;5.10;99.90;;;;;;5028375;28;20061;-89
2021/12/15 15:46:35;;;;;;;4.13;2.60;;;5.10;99.90;;;;;;5030395;28;20030;-89
2021/12/15 15:49:26;;;;;;;7.33;3.43;;;5.10;99.90;;;;;;5031356;28;20036;-89
2021/12/15 15:52:08;;;;;;;5.93;2.80;;;5.10;99.90;;;;;;5031092;28;20024;-89
2021/12/15 15:54:43;;;;;;;6.32;3.17;;;5.10;99.90;;;;;;5028794;28;20060;-89
2021/12/15 15:57:53;;;;;;;4.97;2.50;;;5.00;99.90;;;;;;5031329;28;20117;-90
2021/12/15 16:01:30;;;;;;;;;;;;;;;;;;;;;
2021/12/15 16:25:51;;;;;;;;;;;;;;;;;;;;;
2021/12/15 16:28:56;;;;;;;5.63;3.07;;;5.00;99.90;;;;;;5026259;28;20022;-89
2021/12/15 16:32:12;;;;;;;6.23;3.23;;;5.00;99.90;;;;;;5029121;28;20435;-89
2021/12/15 16:35:24;;;;;;;5.50;3.43;;;5.10;99.90;;;;;;4949375;29;20173;-89
2021/12/15 16:38:43;;;;;;;6.00;3.43;;;5.00;99.90;;;;;;4940990;29;20053;-89
2021/12/15 16:41:16;;;;;;;6.03;2.73;;;5.00;99.90;;;;;;4935238;29;20043;-89
2021/12/15 16:46:35;;;;;;;5.70;2.90;;;5.00;99.90;;;;;;5207602;22;20475;-87
2021/12/15 17:00:01;;;;;;;8.90;3.97;;;5.00;99.90;;;;;;5031416;28;20031;-88
2021/12/15 17:02:37;;;;;;;7.83;3.90;;;5.00;99.90;;;;;;5034873;28;20126;-88
2021/12/15 17:08:53;;;;;;;;;;;;;;;;;;;;;
2021/12/15 17:11:52;;;;;;;;;;;;;;;;;;;;;
2021/12/15 17:15:06;;;;;;;7.13;3.73;;;5.00;99.90;;;;;;5057533;28;20021;-89
2021/12/15 17:18:12;;;;;;;8.30;4.23;;;4.90;99.90;;;;;;5036911;28;20412;-88
2021/12/15 17:21:04;;;;;;;;;;;;;;;;;;;;;
2021/12/15 17:24:22;;;;;;;7.77;4.03;;;4.90;99.90;;;;;;5056293;28;20027;-89
2021/12/15 17:27:07;;;;;;;7.47;4.13;;;4.90;99.90;;;;;;4967527;28;20154;-88
2021/12/15 17:29:36;;;;;;;7.90;4.60;;;4.90;99.90;;;;;;4964515;28;20331;-89
2021/12/15 17:40:17;;;;;;;;;;;;;;;;;;;;;
2021/12/15 17:43:21;;;;;;;7.90;4.43;;;5.10;99.90;;;;;;5050916;28;20083;-91
2021/12/15 17:52:48;;;;;;;5.15;2.78;;;5.20;99.90;;;;;;5053583;28;20040;-90
2021/12/15 17:55:35;;;;;;;9.88;4.85;;;5.20;99.90;;;;;;5033688;28;20449;-90
2021/12/15 17:58:14;;;;;;;9.37;4.50;;;5.20;99.90;;;;;;5045643;28;20112;-92
2021/12/15 18:00:56;;;;;;;6.97;3.93;;;5.30;99.90;;;;;;5041287;28;20539;-91
2021/12/15 18:03:30;;;;;;;;;;;5.30;99.90;;;;;;5055541;28;20487;-92
2021/12/15 18:06:03;;;;;;;9.37;4.83;;;5.30;99.90;;;;;;5043648;28;19905;-91
2021/12/15 18:08:56;;;;;;;;;;;;;;;;;;;;;
2021/12/15 18:11:25;;;;;;;9.27;4.70;;;5.30;99.90;;;;;;5066533;28;20039;-90
2021/12/15 18:13:55;;;;;;;8.37;5.03;;;5.30;99.90;;;;;;5038365;28;20033;-90
2021/12/15 18:16:46;;;;;;;8.07;4.93;;;5.30;99.90;;;;;;5040275;28;20036;-91